Time;durP1;ratioP1;P1;durP2;ratioP2;P2;SDS_P1;SDS_P2;PMS_P1;PMS_P2;Temp;Humidity;BMP_temperature;BMP_pressure;BME280_temperature;BME280_humidity;BME280_pressure;Samples;Min_cycle;Max_cycle;Signal;HPM_P1;HPM_P2
2023/01/13 00:01:28;;;;;;;;;;;;;;;5.09;82.37;96530.39;109116;1272;25421;-82
2023/01/13 00:03:57;;;;;;;;;;;;;;;5.11;82.50;96516.74;109055;1269;22544;-83
2023/01/13 00:06:28;;;;;;;;;;;;;;;5.12;82.51;96521.11;109105;1269;22670;-82
2023/01/13 00:08:57;;;;;;;;;;;;;;;5.11;82.52;96528.61;109098;1272;22492;-82
2023/01/13 00:11:27;;;;;;;;;;;;;;;5.09;82.46;96522.34;109245;1271;22558;-82
2023/01/13 00:13:56;;;;;;;;;;;;;;;5.07;82.63;96519.23;109115;1272;22532;-82
2023/01/13 00:16:26;;;;;;;;;;;;;;;5.07;82.52;96514.81;109172;1269;22507;-83
2023/01/13 00:18:55;;;;;;;;;;;;;;;5.09;82.73;96506.21;109073;1272;31345;-82
2023/01/13 00:21:25;;;;;;;;;;;;;;;5.07;82.64;96511.29;109082;1272;22669;-83
2023/01/13 00:23:55;;;;;;;;;;;;;;;5.09;82.54;96514.05;109090;1272;25274;-82
2023/01/13 00:26:26;;;;;;;;;;;;;;;5.11;82.44;96513.59;109134;1267;22512;-82
2023/01/13 00:28:57;;;;;;;;;;;;;;;5.10;82.52;96504.02;109117;1269;22974;-82
2023/01/13 00:31:28;;;;;;;;;;;;;;;5.13;82.34;96496.33;109121;1269;25324;-82
2023/01/13 00:33:57;;;;;;;;;;;;;;;5.18;82.17;96494.16;109090;1272;25363;-83
2023/01/13 00:36:27;;;;;;;;;;;;;;;5.19;82.16;96497.00;109107;1272;26452;-82
2023/01/13 00:38:57;;;;;;;;;;;;;;;5.19;82.00;96495.90;109065;1272;22502;-82
2023/01/13 00:41:27;;;;;;;;;;;;;;;5.19;82.25;96492.91;109100;1266;22505;-82
2023/01/13 00:43:57;;;;;;;;;;;;;;;5.21;82.17;96498.63;109104;1269;22534;-82
2023/01/13 00:46:27;;;;;;;;;;;;;;;5.21;82.01;96492.06;109102;1272;22727;-82
2023/01/13 00:48:58;;;;;;;;;;;;;;;5.23;82.06;96499.81;109025;1272;37681;-82
2023/01/13 00:51:27;;;;;;;;;;;;;;;5.25;82.04;96498.61;109067;1272;22614;-82
2023/01/13 00:53:57;;;;;;;;;;;;;;;5.24;81.90;96504.70;109088;1269;22515;-82
2023/01/13 00:56:27;;;;;;;;;;;;;;;5.23;81.97;96500.75;109125;1272;23330;-83
2023/01/13 00:58:57;;;;;;;;;;;;;;;5.26;82.10;96502.35;109130;1271;22581;-82
2023/01/13 01:01:27;;;;;;;;;;;;;;;5.26;81.97;96502.56;109201;1266;22644;-82
2023/01/13 01:03:58;;;;;;;;;;;;;;;5.23;81.73;96494.92;109069;1272;23327;-82
2023/01/13 01:06:28;;;;;;;;;;;;;;;5.21;82.07;96491.94;109137;1272;22517;-82
2023/01/13 01:08:59;;;;;;;;;;;;;;;5.18;82.15;96483.76;109050;1269;22491;-82
2023/01/13 01:11:29;;;;;;;;;;;;;;;5.14;82.09;96484.81;109198;1272;22511;-82
2023/01/13 01:14:00;;;;;;;;;;;;;;;5.13;82.10;96487.17;109062;1269;22501;-82
2023/01/13 01:16:30;;;;;;;;;;;;;;;5.13;82.19;96482.34;109110;1269;22548;-82
2023/01/13 01:19:00;;;;;;;;;;;;;;;5.16;82.34;96476.69;109098;1272;22505;-82
2023/01/13 01:21:29;;;;;;;;;;;;;;;5.18;82.23;96476.08;109085;1272;22733;-83
2023/01/13 01:24:01;;;;;;;;;;;;;;;5.17;82.25;96473.76;109061;1272;22511;-82
2023/01/13 01:26:31;;;;;;;;;;;;;;;5.19;82.30;96468.41;109168;1271;22524;-81
2023/01/13 01:29:02;;;;;;;;;;;;;;;5.21;82.41;96471.40;109209;1266;22509;-82
2023/01/13 01:31:32;;;;;;;;;;;;;;;5.23;82.41;96468.95;109066;1269;22514;-81
2023/01/13 01:34:02;;;;;;;;;;;;;;;5.23;82.31;96468.80;109057;1272;22518;-82
2023/01/13 01:36:33;;;;;;;;;;;;;;;5.24;82.23;96469.38;109076;1270;22611;-82
2023/01/13 01:39:04;;;;;;;;;;;;;;;5.23;82.18;96465.48;109056;1272;22545;-82
2023/01/13 01:41:34;;;;;;;;;;;;;;;5.22;82.09;96461.00;109034;1266;22583;-81
2023/01/13 01:44:09;;;;;;;;;;;;;;;5.20;82.15;96464.74;109086;1269;25268;-82
2023/01/13 01:46:39;;;;;;;;;;;;;;;5.25;82.15;96461.09;109138;1272;25315;-81
2023/01/13 01:49:12;;;;;;;;;;;;;;;5.28;81.93;96465.57;109065;1272;25245;-82
2023/01/13 01:51:46;;;;;;;;;;;;;;;5.26;81.94;96457.10;109071;1272;22814;-82
2023/01/13 01:54:22;;;;;;;;;;;;;;;5.28;82.01;96449.23;109044;1269;22546;-82
2023/01/13 01:56:52;;;;;;;;;;;;;;;5.28;82.04;96454.89;109102;1270;22550;-82
2023/01/13 01:59:21;;;;;;;;;;;;;;;5.28;81.96;96447.13;109047;1272;22879;-81
2023/01/13 02:01:51;;;;;;;;;;;;;;;5.34;81.91;96449.55;109076;1267;22519;-82
2023/01/13 02:04:23;;;;;;;;;;;;;;;5.34;82.02;96439.45;109121;1272;22504;-82
2023/01/13 02:06:53;;;;;;;;;;;;;;;5.36;81.90;96446.27;109117;1272;22536;-82
2023/01/13 02:09:22;;;;;;;;;;;;;;;5.31;81.87;96449.61;109068;1266;25381;-82
2023/01/13 02:14:42;;;;;;;;;;;;;;;5.18;82.05;96444.18;109106;1272;22528;-82
2023/01/13 02:17:26;;;;;;;;;;;;;;;5.19;82.35;96440.61;109110;1270;22505;-82
2023/01/13 02:20:09;;;;;;;;;;;;;;;5.21;82.29;96435.39;109068;1272;23355;-82
2023/01/13 02:22:46;;;;;;;;;;;;;;;5.20;82.34;96430.23;109044;1272;22517;-82
2023/01/13 02:25:38;;;;;;;;;;;;;;;5.19;82.29;96430.69;109090;1272;22521;-82
2023/01/13 02:28:24;;;;;;;;;;;;;;;5.27;82.26;96416.20;108985;1272;39475;-82
2023/01/13 02:33:51;;;;;;;;;;;;;;;5.40;81.94;96414.75;109144;1269;22523;-82
2023/01/13 02:36:24;;;;;;;;;;;;;;;5.41;81.73;96405.45;109124;1272;24299;-83
2023/01/13 02:38:56;;;;;;;;;;;;;;;5.43;81.43;96414.13;109138;1269;22975;-81
2023/01/13 02:44:18;;;;;;;;;;;;;;;5.39;81.42;96412.11;109138;1272;23144;-82
2023/01/13 02:46:51;;;;;;;;;;;;;;;5.34;81.40;96413.70;109091;1269;24242;-83
2023/01/13 02:49:25;;;;;;;;;;;;;;;5.29;81.60;96412.18;109077;1272;25532;-83
2023/01/13 02:51:59;;;;;;;;;;;;;;;5.26;81.70;96414.58;109165;1266;22526;-82
2023/01/13 02:54:34;;;;;;;;;;;;;;;5.22;82.03;96411.06;109123;1272;22584;-82
2023/01/13 02:57:07;;;;;;;;;;;;;;;5.16;82.08;96403.59;109121;1272;22506;-82
2023/01/13 02:59:39;;;;;;;;;;;;;;;5.11;82.22;96415.11;109091;1272;22512;-82
2023/01/13 03:02:11;;;;;;;;;;;;;;;5.07;82.44;96408.14;109070;1272;22495;-83
2023/01/13 03:04:49;;;;;;;;;;;;;;;5.09;82.56;96407.05;109007;1272;22539;-82
2023/01/13 03:07:31;;;;;;;;;;;;;;;5.06;82.61;96406.64;109127;1269;24900;-82
2023/01/13 03:10:08;;;;;;;;;;;;;;;5.02;82.61;96410.28;109047;1270;25277;-82
2023/01/13 03:12:43;;;;;;;;;;;;;;;5.00;82.74;96403.96;109108;1272;22623;-82
2023/01/13 03:15:17;;;;;;;;;;;;;;;5.00;82.87;96404.22;109167;1272;22511;-83
2023/01/13 03:17:51;;;;;;;;;;;;;;;5.02;82.99;96400.19;109039;1270;24193;-83
2023/01/13 03:20:22;;;;;;;;;;;;;;;5.15;83.10;96400.02;109201;1272;22527;-82
2023/01/13 03:22:55;;;;;;;;;;;;;;;5.23;82.75;96398.15;109042;1272;22561;-82
2023/01/13 03:25:27;;;;;;;;;;;;;;;5.17;82.55;96398.08;109133;1272;25379;-82
2023/01/13 03:27:58;;;;;;;;;;;;;;;5.11;82.69;96400.40;109174;1266;22507;-82
2023/01/13 03:30:32;;;;;;;;;;;;;;;5.07;82.75;96402.55;109069;1272;22543;-82
2023/01/13 03:33:05;;;;;;;;;;;;;;;5.04;82.73;96401.58;109058;1272;22553;-82
2023/01/13 03:35:38;;;;;;;;;;;;;;;5.00;82.92;96397.45;109144;1272;22533;-82
2023/01/13 03:38:12;;;;;;;;;;;;;;;4.97;83.23;96401.20;109030;1273;22528;-82
2023/01/13 03:40:44;;;;;;;;;;;;;;;4.95;82.96;96402.65;109075;1270;22529;-82
2023/01/13 03:46:09;;;;;;;;;;;;;;;4.90;83.23;96401.54;109034;1273;22645;-82
2023/01/13 03:48:41;;;;;;;;;;;;;;;4.87;83.34;96390.11;109099;1270;25287;-83
2023/01/13 03:51:14;;;;;;;;;;;;;;;4.86;83.46;96386.27;109075;1272;22601;-83
2023/01/13 03:53:48;;;;;;;;;;;;;;;4.87;83.50;96388.06;109048;1272;22502;-82
2023/01/13 03:56:19;;;;;;;;;;;;;;;4.90;83.41;96386.52;109145;1270;22633;-82
2023/01/13 03:58:52;;;;;;;;;;;;;;;4.89;83.46;96379.77;109050;1272;22514;-82
2023/01/13 04:01:24;;;;;;;;;;;;;;;4.86;83.51;96381.02;109107;1266;22524;-83
2023/01/13 04:03:57;;;;;;;;;;;;;;;4.85;83.57;96382.53;109065;1272;22496;-83
2023/01/13 04:06:40;;;;;;;;;;;;;;;4.84;83.52;96382.99;109084;1272;22506;-82
2023/01/13 04:09:16;;;;;;;;;;;;;;;4.85;83.47;96385.15;109079;1269;22527;-83
2023/01/13 04:11:49;;;;;;;;;;;;;;;4.83;83.57;96387.40;109036;1272;25240;-82
2023/01/13 04:14:20;;;;;;;;;;;;;;;4.82;83.35;96377.83;109139;1272;25335;-83
2023/01/13 04:16:49;;;;;;;;;;;;;;;4.81;83.34;96382.13;109163;1272;22714;-82
2023/01/13 04:19:19;;;;;;;;;;;;;;;4.78;83.44;96372.22;109089;1267;22936;-82
2023/01/13 04:21:48;;;;;;;;;;;;;;;4.77;83.49;96376.08;109055;1272;23212;-82
2023/01/13 04:24:20;;;;;;;;;;;;;;;4.75;83.47;96374.39;109083;1272;22519;-82
2023/01/13 04:26:50;;;;;;;;;;;;;;;4.74;83.43;96371.60;109114;1270;23002;-82
2023/01/13 04:29:20;;;;;;;;;;;;;;;4.73;83.57;96373.00;109057;1272;31803;-82
2023/01/13 04:31:49;;;;;;;;;;;;;;;4.73;83.73;96372.64;109083;1270;23027;-82
2023/01/13 04:34:21;;;;;;;;;;;;;;;4.76;83.79;96372.98;109052;1273;22512;-82
2023/01/13 04:36:50;;;;;;;;;;;;;;;4.80;84.01;96374.48;109081;1272;22618;-82
2023/01/13 04:39:20;;;;;;;;;;;;;;;4.86;83.99;96374.50;109050;1272;22516;-82
2023/01/13 04:41:58;;;;;;;;;;;;;;;4.88;84.05;96380.04;109115;1269;25330;-83
2023/01/13 04:44:29;;;;;;;;;;;;;;;4.93;83.89;96389.86;109186;1272;22576;-82
2023/01/13 04:46:59;;;;;;;;;;;;;;;4.99;84.10;96387.52;109068;1272;22509;-82
2023/01/13 04:49:28;;;;;;;;;;;;;;;5.04;83.79;96394.27;109068;1272;24215;-82
2023/01/13 04:51:58;;;;;;;;;;;;;;;5.10;83.67;96390.04;109124;1272;22620;-82
2023/01/13 04:54:27;;;;;;;;;;;;;;;5.13;83.58;96389.02;109049;1272;22521;-81
2023/01/13 04:56:57;;;;;;;;;;;;;;;5.14;83.38;96385.81;109103;1266;22513;-82
2023/01/13 04:59:26;;;;;;;;;;;;;;;5.17;83.41;96390.04;109035;1273;22503;-82
2023/01/13 05:01:55;;;;;;;;;;;;;;;5.20;83.32;96382.35;109066;1272;24533;-82
2023/01/13 05:04:25;;;;;;;;;;;;;;;5.23;83.37;96387.48;109044;1273;22524;-83
2023/01/13 05:06:54;;;;;;;;;;;;;;;5.27;83.58;96390.92;109119;1267;22571;-82
2023/01/13 05:09:23;;;;;;;;;;;;;;;5.30;83.54;96385.44;109082;1267;22569;-82
2023/01/13 05:17:27;;;;;;;;;;;;;;;5.33;83.25;96391.34;109129;1272;22493;-83
2023/01/13 05:19:56;;;;;;;;;;;;;;;5.27;83.22;96390.24;109072;1260;22516;-82
2023/01/13 05:25:24;;;;;;;;;;;;;;;5.17;83.15;96401.13;109083;1267;22513;-83
2023/01/13 05:27:55;;;;;;;;;;;;;;;5.14;83.41;96396.21;109075;1272;50657;-83
2023/01/13 05:30:25;;;;;;;;;;;;;;;5.13;83.47;96394.01;109089;1266;22501;-83
2023/01/13 05:32:55;;;;;;;;;;;;;;;5.11;83.54;96392.10;109077;1272;25262;-83
2023/01/13 05:35:24;;;;;;;;;;;;;;;5.10;83.73;96393.91;109077;1267;22511;-83
2023/01/13 05:37:55;;;;;;;;;;;;;;;5.07;83.66;96394.00;109047;1272;22508;-83
2023/01/13 05:43:19;;;;;;;;;;;;;;;5.08;83.91;96398.27;109160;1272;24240;-83
2023/01/13 05:45:50;;;;;;;;;;;;;;;5.09;83.87;96384.89;109104;1273;22550;-83
2023/01/13 05:48:21;;;;;;;;;;;;;;;5.11;83.90;96391.25;109179;1270;22516;-83
2023/01/13 05:50:51;;;;;;;;;;;;;;;5.13;83.79;96396.20;109054;1273;22502;-84
2023/01/13 05:53:21;;;;;;;;;;;;;;;5.14;83.76;96386.55;109057;1272;22510;-83
2023/01/13 05:55:53;;;;;;;;;;;;;;;5.15;83.50;96373.63;109176;1267;22509;-83
2023/01/13 05:58:26;;;;;;;;;;;;;;;5.13;83.63;96387.64;109069;1267;22516;-83
2023/01/13 06:00:58;;;;;;;;;;;;;;;5.12;83.47;96384.96;109067;1272;22628;-83
2023/01/13 06:03:28;;;;;;;;;;;;;;;5.10;83.52;96385.63;109196;1272;25340;-83
2023/01/13 06:06:00;;;;;;;;;;;;;;;5.09;83.72;96383.63;109122;1272;25182;-82
2023/01/13 06:08:31;;;;;;;;;;;;;;;5.10;83.51;96394.29;109069;1272;25248;-82
2023/01/13 06:11:00;;;;;;;;;;;;;;;5.10;83.60;96396.66;109062;1267;22505;-82
2023/01/13 06:13:30;;;;;;;;;;;;;;;5.13;83.31;96398.63;109077;1267;25332;-82
2023/01/13 06:16:02;;;;;;;;;;;;;;;5.23;83.10;96388.89;109130;1272;26289;-82
2023/01/13 06:18:31;;;;;;;;;;;;;;;5.36;82.79;96395.94;109071;1269;22681;-82
2023/01/13 06:21:01;;;;;;;;;;;;;;;5.38;82.43;96412.16;109060;1270;22525;-82
2023/01/13 06:23:33;;;;;;;;;;;;;;;5.33;82.48;96409.00;109170;1269;22532;-83
2023/01/13 06:26:05;;;;;;;;;;;;;;;5.27;82.42;96410.01;109153;1269;23223;-82
2023/01/13 06:28:35;;;;;;;;;;;;;;;5.23;82.46;96419.70;109062;1272;33147;-83
2023/01/13 06:31:06;;;;;;;;;;;;;;;5.20;82.67;96412.55;109105;1272;22524;-82
2023/01/13 06:33:37;;;;;;;;;;;;;;;5.20;82.45;96397.33;109049;1272;22509;-82
2023/01/13 06:36:10;;;;;;;;;;;;;;;5.25;82.34;96397.73;109131;1260;22506;-82
2023/01/13 06:38:41;;;;;;;;;;;;;;;5.26;82.33;96395.65;109127;1272;22945;-82
2023/01/13 06:41:11;;;;;;;;;;;;;;;5.26;82.19;96404.95;109074;1264;22503;-82
2023/01/13 06:43:41;;;;;;;;;;;;;;;5.22;82.32;96409.23;109166;1269;25580;-83
2023/01/13 06:46:10;;;;;;;;;;;;;;;5.19;82.30;96406.98;109112;1272;22540;-82
2023/01/13 06:48:42;;;;;;;;;;;;;;;5.15;82.44;96409.52;109097;1272;35902;-82
2023/01/13 06:51:11;;;;;;;;;;;;;;;5.14;82.67;96405.63;109113;1266;22525;-82
2023/01/13 06:53:41;;;;;;;;;;;;;;;5.17;82.60;96412.01;109058;1272;25388;-82
2023/01/13 06:56:10;;;;;;;;;;;;;;;5.18;82.72;96413.58;109162;1272;22515;-82
2023/01/13 06:58:40;;;;;;;;;;;;;;;5.23;82.41;96413.91;109061;1259;22525;-82
2023/01/13 07:01:10;;;;;;;;;;;;;;;5.26;82.43;96410.95;109105;1272;22515;-82
2023/01/13 07:03:40;;;;;;;;;;;;;;;5.39;82.19;96403.33;109092;1272;22946;-82
2023/01/13 07:06:09;;;;;;;;;;;;;;;5.51;81.64;96404.64;109056;1272;22501;-82
2023/01/13 07:08:39;;;;;;;;;;;;;;;5.67;81.07;96402.71;109099;1272;22545;-83
2023/01/13 07:11:08;;;;;;;;;;;;;;;5.79;80.60;96401.39;109166;1266;22524;-83
2023/01/13 07:16:26;;;;;;;;;;;;;;;6.00;78.76;96392.04;109157;1272;22657;-82
2023/01/13 07:18:56;;;;;;;;;;;;;;;6.12;78.37;96398.05;109084;1272;22558;-83
2023/01/13 07:21:26;;;;;;;;;;;;;;;6.15;78.16;96394.64;109084;1269;22529;-83
2023/01/13 07:23:55;;;;;;;;;;;;;;;6.16;77.29;96382.49;109109;1266;24270;-83
2023/01/13 07:26:25;;;;;;;;;;;;;;;6.21;77.06;96390.53;109111;1266;22515;-83
2023/01/13 07:28:54;;;;;;;;;;;;;;;6.23;76.62;96385.80;109146;1272;22546;-83
2023/01/13 07:31:24;;;;;;;;;;;;;;;6.27;76.15;96393.28;109122;1272;22525;-83
2023/01/13 07:33:54;;;;;;;;;;;;;;;6.29;75.79;96386.23;109138;1269;22516;-83
2023/01/13 07:36:24;;;;;;;;;;;;;;;6.32;75.45;96394.77;109112;1272;22514;-82
2023/01/13 07:38:54;;;;;;;;;;;;;;;6.33;75.69;96403.31;109119;1269;24124;-82
2023/01/13 07:44:11;;;;;;;;;;;;;;;6.26;76.12;96400.34;109144;1266;22506;-82
2023/01/13 07:46:41;;;;;;;;;;;;;;;6.27;75.97;96396.49;109097;1266;22515;-83
2023/01/13 07:49:13;;;;;;;;;;;;;;;6.34;75.68;96391.33;109060;1272;22521;-83
2023/01/13 07:51:42;;;;;;;;;;;;;;;6.42;75.36;96397.15;109091;1272;22627;-82
2023/01/13 07:54:12;;;;;;;;;;;;;;;6.45;75.49;96403.41;109138;1272;22516;-83
2023/01/13 07:56:41;;;;;;;;;;;;;;;6.51;74.87;96394.62;109116;1272;22509;-82
2023/01/13 07:59:11;;;;;;;;;;;;;;;6.57;75.12;96403.84;109093;1272;22498;-83
2023/01/13 08:01:40;;;;;;;;;;;;;;;6.59;74.69;96396.16;109031;1266;22498;-82
2023/01/13 08:04:09;;;;;;;;;;;;;;;6.63;74.24;96388.60;109029;1272;22530;-83
2023/01/13 08:06:42;;;;;;;;;;;;;;;6.67;73.64;96396.99;109146;1266;24431;-82
2023/01/13 08:09:14;;;;;;;;;;;;;;;6.72;73.80;96397.58;109081;1272;22502;-82
2023/01/13 08:11:43;;;;;;;;;;;;;;;6.72;73.67;96404.33;109050;1272;22532;-82
2023/01/13 08:14:13;;;;;;;;;;;;;;;6.77;73.03;96401.45;109104;1272;22590;-83
2023/01/13 08:16:43;;;;;;;;;;;;;;;6.80;73.12;96402.15;109125;1272;22527;-82
2023/01/13 08:19:12;;;;;;;;;;;;;;;6.78;73.26;96404.05;109113;1272;22532;-82
2023/01/13 08:21:42;;;;;;;;;;;;;;;6.75;73.31;96406.98;109107;1272;22594;-82
2023/01/13 08:24:11;;;;;;;;;;;;;;;6.73;73.04;96411.44;109096;1272;22493;-83
2023/01/13 08:26:40;;;;;;;;;;;;;;;6.75;73.19;96409.39;109071;1272;22501;-83
2023/01/13 08:29:10;;;;;;;;;;;;;;;6.77;73.10;96402.57;109052;1272;42743;-83
2023/01/13 08:31:42;;;;;;;;;;;;;;;6.79;72.87;96411.85;109106;1272;22528;-83
2023/01/13 08:34:11;;;;;;;;;;;;;;;6.82;72.73;96403.11;109142;1264;22636;-82
2023/01/13 08:36:41;;;;;;;;;;;;;;;6.84;72.69;96409.38;109072;1266;23154;-83
2023/01/13 08:39:11;;;;;;;;;;;;;;;6.85;72.33;96412.70;109114;1272;22538;-83
2023/01/13 08:41:55;;;;;;;;;;;;;;;6.87;72.67;96411.64;109111;1272;26638;-82
2023/01/13 08:44:26;;;;;;;;;;;;;;;6.87;72.48;96401.68;109133;1253;22502;-82
2023/01/13 08:46:56;;;;;;;;;;;;;;;6.88;72.48;96408.27;109188;1272;22568;-82
2023/01/13 08:49:26;;;;;;;;;;;;;;;6.91;72.27;96402.92;109052;1272;23524;-82
2023/01/13 08:51:55;;;;;;;;;;;;;;;6.96;71.89;96395.92;109086;1272;22515;-83
2023/01/13 08:54:24;;;;;;;;;;;;;;;7.03;71.59;96384.77;109098;1266;22513;-83
2023/01/13 08:56:54;;;;;;;;;;;;;;;7.08;71.68;96392.69;109095;1266;25460;-82
2023/01/13 08:59:23;;;;;;;;;;;;;;;7.12;71.92;96389.58;109058;1272;22497;-82
2023/01/13 09:01:53;;;;;;;;;;;;;;;7.16;71.11;96379.50;109105;1266;22541;-82
2023/01/13 09:04:23;;;;;;;;;;;;;;;7.20;71.00;96379.95;109081;1267;22512;-83
2023/01/13 09:06:53;;;;;;;;;;;;;;;7.23;70.79;96388.02;109093;1272;22641;-83
2023/01/13 09:09:26;;;;;;;;;;;;;;;7.26;70.45;96373.83;109079;1266;23943;-84
2023/01/13 09:14:43;;;;;;;;;;;;;;;7.33;69.83;96382.55;109094;1264;22515;-84
2023/01/13 09:17:13;;;;;;;;;;;;;;;7.36;69.60;96383.81;109102;1262;22551;-83
2023/01/13 09:19:43;;;;;;;;;;;;;;;7.41;69.22;96373.47;109168;1266;22565;-84
2023/01/13 09:22:13;;;;;;;;;;;;;;;7.47;69.16;96382.92;109212;1271;22571;-82
2023/01/13 09:24:43;;;;;;;;;;;;;;;7.52;69.70;96381.13;109111;1266;22529;-83
2023/01/13 09:27:13;;;;;;;;;;;;;;;7.55;69.72;96374.05;109125;1273;22508;-82
2023/01/13 09:29:43;;;;;;;;;;;;;;;7.58;69.11;96364.13;109055;1266;22515;-83
2023/01/13 09:32:13;;;;;;;;;;;;;;;7.60;68.43;96360.39;109097;1272;22502;-82
2023/01/13 09:35:02;;;;;;;;;;;;;;;7.63;67.88;96372.00;109150;1272;22518;-82
2023/01/13 09:37:34;;;;;;;;;;;;;;;7.67;68.45;96365.08;109105;1269;22677;-83
2023/01/13 09:40:04;;;;;;;;;;;;;;;7.68;68.14;96374.10;109116;1265;22526;-83
2023/01/13 09:45:29;;;;;;;;;;;;;;;7.72;67.87;96362.21;109082;1273;22512;-83
2023/01/13 09:48:02;;;;;;;;;;;;;;;7.72;68.05;96359.05;109107;1266;23052;-83
2023/01/13 09:50:41;;;;;;;;;;;;;;;7.74;68.24;96341.43;109046;1272;22508;-82
2023/01/13 09:53:14;;;;;;;;;;;;;;;7.75;68.28;96348.20;109101;1266;22523;-84
2023/01/13 09:55:44;;;;;;;;;;;;;;;7.74;67.95;96335.52;109121;1272;22505;-83
2023/01/13 09:58:15;;;;;;;;;;;;;;;7.73;67.60;96318.98;109048;1265;22579;-81
2023/01/13 10:00:47;;;;;;;;;;;;;;;7.75;67.79;96330.14;109085;1260;24312;-83
2023/01/13 10:03:21;;;;;;;;;;;;;;;7.80;67.76;96339.68;109092;1272;24172;-83
2023/01/13 10:05:56;;;;;;;;;;;;;;;7.83;68.09;96336.40;109114;1272;22505;-81
2023/01/13 10:08:27;;;;;;;;;;;;;;;7.92;67.80;96332.70;109047;1272;22516;-83
2023/01/13 10:10:58;;;;;;;;;;;;;;;7.99;67.37;96343.27;109110;1266;23036;-82
2023/01/13 10:13:28;;;;;;;;;;;;;;;8.09;67.78;96342.63;109114;1272;24209;-83
2023/01/13 10:16:13;;;;;;;;;;;;;;;8.27;67.42;96345.31;109174;1272;22542;-83
2023/01/13 10:18:50;;;;;;;;;;;;;;;8.38;67.08;96348.32;109134;1272;22510;-83
2023/01/13 10:21:31;;;;;;;;;;;;;;;8.46;67.01;96343.23;109170;1272;22577;-83
2023/01/13 10:24:03;;;;;;;;;;;;;;;8.51;66.71;96339.39;109133;1271;25575;-83
2023/01/13 10:26:43;;;;;;;;;;;;;;;8.49;66.05;96358.37;109159;1266;197637;-83
2023/01/13 10:29:23;;;;;;;;;;;;;;;8.42;66.44;96348.61;109151;1272;22929;-83
2023/01/13 10:31:54;;;;;;;;;;;;;;;8.30;66.05;96347.52;109146;1272;22530;-83
2023/01/13 10:34:24;;;;;;;;;;;;;;;8.19;66.54;96349.58;109171;1266;22505;-83
2023/01/13 10:37:04;;;;;;;;;;;;;;;8.19;66.84;96340.48;109167;1266;24203;-82
2023/01/13 10:39:43;;;;;;;;;;;;;;;8.13;66.96;96336.80;109126;1266;22618;-83
2023/01/13 10:42:14;;;;;;;;;;;;;;;8.11;67.17;96329.04;109205;1266;23951;-82
2023/01/13 10:44:53;;;;;;;;;;;;;;;8.08;67.26;96337.77;109196;1272;22513;-82
2023/01/13 10:47:27;;;;;;;;;;;;;;;8.03;67.34;96321.94;109215;1272;23249;-82
2023/01/13 10:50:18;;;;;;;;;;;;;;;8.00;67.78;96314.86;109248;1267;52325;-82
2023/01/13 10:52:58;;;;;;;;;;;;;;;8.01;67.75;96316.39;109217;1272;22530;-83
2023/01/13 10:55:30;;;;;;;;;;;;;;;7.96;67.56;96307.29;109195;1272;22524;-82
2023/01/13 10:58:14;;;;;;;;;;;;;;;7.92;67.46;96315.81;109199;1269;23345;-82
2023/01/13 11:00:46;;;;;;;;;;;;;;;7.93;67.40;96306.61;109115;1272;22495;-83
2023/01/13 11:03:19;;;;;;;;;;;;;;;7.94;67.51;96300.96;109247;1272;23267;-83
2023/01/13 11:05:50;;;;;;;;;;;;;;;7.93;67.14;96295.64;109194;1272;22618;-82
2023/01/13 11:08:21;;;;;;;;;;;;;;;7.94;67.30;96304.45;109151;1266;22618;-82
2023/01/13 11:10:52;;;;;;;;;;;;;;;7.93;67.27;96294.42;109188;1272;24232;-82
2023/01/13 11:13:27;;;;;;;;;;;;;;;7.89;67.52;96298.19;109184;1272;22547;-81
2023/01/13 11:16:00;;;;;;;;;;;;;;;7.89;67.64;96296.87;109133;1269;22500;-82
2023/01/13 11:18:35;;;;;;;;;;;;;;;7.89;67.83;96290.85;109126;1272;25266;-82
2023/01/13 11:21:09;;;;;;;;;;;;;;;7.89;67.84;96279.61;109167;1272;24318;-82
2023/01/13 11:23:46;;;;;;;;;;;;;;;7.89;68.01;96279.88;109138;1272;22737;-82
2023/01/13 11:26:18;;;;;;;;;;;;;;;7.91;67.63;96263.23;109188;1272;22552;-82
2023/01/13 11:28:50;;;;;;;;;;;;;;;7.92;67.83;96271.10;109103;1266;22568;-82
2023/01/13 11:31:24;;;;;;;;;;;;;;;7.93;67.92;96273.25;109114;1272;23240;-82
2023/01/13 11:33:57;;;;;;;;;;;;;;;7.96;67.67;96268.33;109139;1272;22662;-82
2023/01/13 11:36:31;;;;;;;;;;;;;;;7.97;67.42;96270.00;109125;1265;22526;-81
2023/01/13 11:39:09;;;;;;;;;;;;;;;7.99;67.24;96266.30;109159;1268;22492;-83
2023/01/13 11:41:42;;;;;;;;;;;;;;;8.02;67.36;96264.04;109232;1269;22502;-81
2023/01/13 11:44:18;;;;;;;;;;;;;;;8.03;67.31;96260.49;109303;1272;23625;-83
2023/01/13 11:46:49;;;;;;;;;;;;;;;8.05;66.95;96273.11;109164;1266;23079;-82
2023/01/13 11:49:21;;;;;;;;;;;;;;;8.06;66.85;96277.86;109217;1269;22527;-82
2023/01/13 11:51:55;;;;;;;;;;;;;;;8.06;67.02;96270.95;109194;1266;26463;-83
2023/01/13 11:54:44;;;;;;;;;;;;;;;8.08;67.23;96276.27;109217;1266;22680;-82
2023/01/13 11:57:34;;;;;;;;;;;;;;;8.12;67.05;96262.56;109168;1272;25498;-82
2023/01/13 12:00:16;;;;;;;;;;;;;;;8.13;66.26;96256.00;109102;1271;22666;-83
2023/01/13 12:02:52;;;;;;;;;;;;;;;8.15;66.50;96262.86;109214;1266;22501;-83
2023/01/13 12:05:29;;;;;;;;;;;;;;;8.18;66.56;96272.27;109195;1273;22506;-83
2023/01/13 12:08:05;;;;;;;;;;;;;;;8.21;66.32;96268.23;109132;1272;25405;-82
2023/01/13 12:10:46;;;;;;;;;;;;;;;8.22;65.99;96259.94;109232;1271;22497;-82
2023/01/13 12:13:21;;;;;;;;;;;;;;;8.22;65.74;96254.17;109175;1269;22501;-83
2023/01/13 12:15:58;;;;;;;;;;;;;;;8.22;66.18;96268.23;109253;1271;22527;-83
2023/01/13 12:18:41;;;;;;;;;;;;;;;8.23;66.24;96260.78;109104;1272;34848;-83
2023/01/13 12:21:17;;;;;;;;;;;;;;;8.22;65.66;96249.85;109183;1266;22478;-83
2023/01/13 12:23:51;;;;;;;;;;;;;;;8.19;65.80;96257.21;109149;1272;22565;-82
2023/01/13 12:26:21;;;;;;;;;;;;;;;8.19;65.81;96264.02;109154;1272;23692;-83
2023/01/13 12:28:53;;;;;;;;;;;;;;;8.18;65.72;96259.23;109166;1266;25397;-82
2023/01/13 12:31:24;;;;;;;;;;;;;;;8.17;65.92;96255.11;109180;1272;22640;-82
2023/01/13 12:34:00;;;;;;;;;;;;;;;8.16;66.14;96250.13;109165;1272;23853;-82
2023/01/13 12:36:34;;;;;;;;;;;;;;;8.15;65.69;96251.88;109137;1266;22513;-83
2023/01/13 12:39:10;;;;;;;;;;;;;;;8.16;65.22;96248.06;109180;1269;38515;-82
2023/01/13 12:44:15;;;;;;;;;;;;;;;8.19;64.80;96258.21;109247;1272;22828;-83
2023/01/13 12:44:34;;;;;;;;;;;;;;;8.23;65.13;96253.70;109181;1266;22515;-83
2023/01/13 12:47:03;;;;;;;;;;;;;;;8.24;64.76;96247.61;109123;1272;23804;-82
2023/01/13 12:49:33;;;;;;;;;;;;;;;8.28;64.75;96252.13;109046;1266;44002;-82
2023/01/13 12:52:18;;;;;;;;;;;;;;;8.28;65.31;96253.30;109207;1271;22539;-83
2023/01/13 12:55:16;;;;;;;;;;;;;;;8.28;64.81;96251.98;109204;1272;26538;-82
2023/01/13 12:58:02;;;;;;;;;;;;;;;8.33;64.87;96255.09;109155;1272;25442;-82
2023/01/13 13:00:36;;;;;;;;;;;;;;;8.36;64.83;96251.89;109057;1272;25711;-82
2023/01/13 13:03:23;;;;;;;;;;;;;;;8.38;64.86;96250.74;109189;1266;22516;-83
2023/01/13 13:06:00;;;;;;;;;;;;;;;8.40;64.31;96244.70;109128;1269;25233;-82
2023/01/13 13:08:42;;;;;;;;;;;;;;;8.42;64.35;96243.33;109140;1266;23823;-82
2023/01/13 13:14:13;;;;;;;;;;;;;;;8.44;63.98;96239.73;109178;1272;22532;-82
2023/01/13 13:16:47;;;;;;;;;;;;;;;8.45;64.27;96255.84;109120;1266;22599;-83
2023/01/13 13:19:37;;;;;;;;;;;;;;;8.46;64.39;96252.14;109041;1273;23795;-83
2023/01/13 13:22:36;;;;;;;;;;;;;;;8.46;64.25;96245.38;109082;1273;24701;-83
2023/01/13 13:25:22;;;;;;;;;;;;;;;8.45;64.29;96254.58;109197;1272;23806;-83
2023/01/13 13:28:00;;;;;;;;;;;;;;;8.44;64.64;96259.38;109046;1267;61068;-81
2023/01/13 13:30:31;;;;;;;;;;;;;;;8.41;64.72;96264.67;109156;1272;22526;-82
2023/01/13 13:33:09;;;;;;;;;;;;;;;8.36;64.96;96265.35;109149;1272;24212;-83
2023/01/13 13:35:43;;;;;;;;;;;;;;;8.30;65.16;96265.82;109162;1272;22654;-83
2023/01/13 13:46:50;;;;;;;;;;;;;;;8.20;65.29;96249.18;109111;1266;22498;-82
2023/01/13 13:49:21;;;;;;;;;;;;;;;8.18;65.49;96256.38;109143;1272;22564;-82
2023/01/13 13:51:54;;;;;;;;;;;;;;;8.15;65.59;96258.21;109103;1273;22550;-83
2023/01/13 13:54:24;;;;;;;;;;;;;;;8.10;65.61;96244.94;109165;1272;22559;-83
2023/01/13 13:56:56;;;;;;;;;;;;;;;8.09;65.71;96252.23;109154;1266;24906;-82
2023/01/13 13:59:32;;;;;;;;;;;;;;;8.04;65.66;96246.04;109109;1266;22570;-82
2023/01/13 14:02:04;;;;;;;;;;;;;;;8.00;66.02;96252.94;109112;1266;23903;-81